sensor_id;sensor_type;location;lat;lon;timestamp;noise_LAeq;noise_LA_min;noise_LA_max;noise_LA01;noise_LA95
58303;Laerm;44109;52.398;7.024;2023-01-15T00:01:37;45.59;33.93;57.01;;
58303;Laerm;44109;52.398;7.024;2023-01-15T00:04:07;45.74;32.93;59.98;;
58303;Laerm;44109;52.398;7.024;2023-01-15T00:06:40;45.78;35.11;56.46;;
58303;Laerm;44109;52.398;7.024;2023-01-15T00:09:13;45.23;33.88;56.89;;
58303;Laerm;44109;52.398;7.024;2023-01-15T00:11:41;44.68;33.63;56.61;;
58303;Laerm;44109;52.398;7.024;2023-01-15T00:14:09;45.21;33.04;58.72;;
58303;Laerm;44109;52.398;7.024;2023-01-15T00:16:37;45.47;34.71;56.42;;
58303;Laerm;44109;52.398;7.024;2023-01-15T00:19:09;44.92;33.16;56.36;;
58303;Laerm;44109;52.398;7.024;2023-01-15T00:21:38;45.04;33.19;56.63;;
58303;Laerm;44109;52.398;7.024;2023-01-15T00:24:05;45.55;35.12;57.09;;
58303;Laerm;44109;52.398;7.024;2023-01-15T00:26:51;44.73;33.15;56.54;;
58303;Laerm;44109;52.398;7.024;2023-01-15T00:29:36;45.00;33.80;56.47;;
58303;Laerm;44109;52.398;7.024;2023-01-15T00:32:06;45.24;34.80;56.94;;
58303;Laerm;44109;52.398;7.024;2023-01-15T00:34:36;45.85;34.03;56.46;;
58303;Laerm;44109;52.398;7.024;2023-01-15T00:37:03;45.11;33.51;56.91;;
58303;Laerm;44109;52.398;7.024;2023-01-15T00:39:31;45.30;34.17;56.73;;
58303;Laerm;44109;52.398;7.024;2023-01-15T00:41:59;46.11;36.64;56.74;;
58303;Laerm;44109;52.398;7.024;2023-01-15T00:44:27;45.71;35.43;62.49;;
58303;Laerm;44109;52.398;7.024;2023-01-15T00:46:55;45.43;33.96;57.26;;
58303;Laerm;44109;52.398;7.024;2023-01-15T00:49:22;46.66;35.07;59.49;;
58303;Laerm;44109;52.398;7.024;2023-01-15T00:51:51;46.11;35.18;56.90;;
58303;Laerm;44109;52.398;7.024;2023-01-15T00:54:19;46.24;35.72;60.25;;
58303;Laerm;44109;52.398;7.024;2023-01-15T00:56:46;45.77;34.74;57.26;;
58303;Laerm;44109;52.398;7.024;2023-01-15T00:59:14;46.06;34.85;56.89;;
58303;Laerm;44109;52.398;7.024;2023-01-15T01:01:42;45.24;33.07;56.64;;
58303;Laerm;44109;52.398;7.024;2023-01-15T01:04:10;45.58;34.74;56.98;;
58303;Laerm;44109;52.398;7.024;2023-01-15T01:06:37;45.15;32.99;59.64;;
58303;Laerm;44109;52.398;7.024;2023-01-15T01:09:06;45.07;32.45;56.79;;
58303;Laerm;44109;52.398;7.024;2023-01-15T01:11:34;45.35;32.95;56.89;;
58303;Laerm;44109;52.398;7.024;2023-01-15T01:14:02;45.31;33.89;56.46;;
58303;Laerm;44109;52.398;7.024;2023-01-15T01:16:32;45.21;33.59;56.64;;
58303;Laerm;44109;52.398;7.024;2023-01-15T01:19:05;44.98;32.73;56.67;;
58303;Laerm;44109;52.398;7.024;2023-01-15T01:21:36;46.64;35.54;56.82;;
58303;Laerm;44109;52.398;7.024;2023-01-15T01:24:07;45.14;33.69;60.67;;
58303;Laerm;44109;52.398;7.024;2023-01-15T01:26:36;45.03;33.61;56.87;;
58303;Laerm;44109;52.398;7.024;2023-01-15T01:29:04;45.60;34.72;57.05;;
58303;Laerm;44109;52.398;7.024;2023-01-15T01:31:32;50.18;35.27;57.63;;
58303;Laerm;44109;52.398;7.024;2023-01-15T01:34:00;50.69;47.15;63.77;;
58303;Laerm;44109;52.398;7.024;2023-01-15T01:36:31;48.23;34.31;56.57;;
58303;Laerm;44109;52.398;7.024;2023-01-15T01:39:00;45.57;34.42;56.81;;
58303;Laerm;44109;52.398;7.024;2023-01-15T01:41:30;44.82;32.54;56.80;;
58303;Laerm;44109;52.398;7.024;2023-01-15T01:44:01;45.23;33.27;56.86;;
58303;Laerm;44109;52.398;7.024;2023-01-15T01:46:32;45.48;33.01;57.02;;
58303;Laerm;44109;52.398;7.024;2023-01-15T01:49:05;45.10;33.18;57.04;;
58303;Laerm;44109;52.398;7.024;2023-01-15T01:51:40;46.25;34.15;58.63;;
58303;Laerm;44109;52.398;7.024;2023-01-15T01:54:15;44.98;33.11;56.92;;
58303;Laerm;44109;52.398;7.024;2023-01-15T01:56:47;45.33;32.60;56.97;;
58303;Laerm;44109;52.398;7.024;2023-01-15T01:59:17;45.44;33.34;56.61;;
58303;Laerm;44109;52.398;7.024;2023-01-15T02:01:47;45.43;33.84;56.44;;
58303;Laerm;44109;52.398;7.024;2023-01-15T02:04:17;45.24;33.14;56.79;;
58303;Laerm;44109;52.398;7.024;2023-01-15T02:06:46;45.29;33.84;56.92;;
58303;Laerm;44109;52.398;7.024;2023-01-15T02:09:14;46.25;33.12;56.59;;
58303;Laerm;44109;52.398;7.024;2023-01-15T02:11:42;45.54;34.20;56.84;;
58303;Laerm;44109;52.398;7.024;2023-01-15T02:14:20;46.16;34.50;61.44;;
58303;Laerm;44109;52.398;7.024;2023-01-15T02:16:57;45.36;34.43;58.46;;
58303;Laerm;44109;52.398;7.024;2023-01-15T02:19:41;45.97;34.28;58.87;;
58303;Laerm;44109;52.398;7.024;2023-01-15T02:22:20;46.32;34.68;57.16;;
58303;Laerm;44109;52.398;7.024;2023-01-15T02:25:05;44.86;33.36;56.48;;
58303;Laerm;44109;52.398;7.024;2023-01-15T02:27:45;45.22;33.64;57.30;;
58303;Laerm;44109;52.398;7.024;2023-01-15T02:30:21;46.01;35.02;57.15;;
58303;Laerm;44109;52.398;7.024;2023-01-15T02:32:56;46.17;36.33;59.46;;
58303;Laerm;44109;52.398;7.024;2023-01-15T02:35:31;45.68;34.49;57.00;;
58303;Laerm;44109;52.398;7.024;2023-01-15T02:38:07;46.03;35.24;56.93;;
58303;Laerm;44109;52.398;7.024;2023-01-15T02:40:40;47.41;34.01;61.51;;
58303;Laerm;44109;52.398;7.024;2023-01-15T02:43:13;45.70;35.18;56.49;;
58303;Laerm;44109;52.398;7.024;2023-01-15T02:45:49;45.56;33.55;57.11;;
58303;Laerm;44109;52.398;7.024;2023-01-15T02:48:27;45.98;34.91;57.80;;
58303;Laerm;44109;52.398;7.024;2023-01-15T02:51:04;47.77;38.88;64.10;;
58303;Laerm;44109;52.398;7.024;2023-01-15T02:53:37;47.95;34.26;58.07;;
58303;Laerm;44109;52.398;7.024;2023-01-15T02:56:14;47.24;34.86;58.83;;
58303;Laerm;44109;52.398;7.024;2023-01-15T02:58:49;45.71;34.80;56.93;;
58303;Laerm;44109;52.398;7.024;2023-01-15T03:01:25;46.38;34.46;61.03;;
58303;Laerm;44109;52.398;7.024;2023-01-15T03:04:00;47.05;36.14;57.65;;
58303;Laerm;44109;52.398;7.024;2023-01-15T03:06:37;46.76;36.90;56.89;;
58303;Laerm;44109;52.398;7.024;2023-01-15T03:09:08;47.45;37.35;61.50;;
58303;Laerm;44109;52.398;7.024;2023-01-15T03:11:43;45.64;35.56;56.95;;
58303;Laerm;44109;52.398;7.024;2023-01-15T03:14:19;46.64;34.73;62.42;;
58303;Laerm;44109;52.398;7.024;2023-01-15T03:16:52;45.42;35.09;56.93;;
58303;Laerm;44109;52.398;7.024;2023-01-15T03:19:25;45.30;34.60;57.30;;
58303;Laerm;44109;52.398;7.024;2023-01-15T03:22:01;48.90;38.34;61.39;;
58303;Laerm;44109;52.398;7.024;2023-01-15T03:24:37;47.99;34.87;70.30;;
58303;Laerm;44109;52.398;7.024;2023-01-15T03:27:06;46.79;36.47;62.42;;
58303;Laerm;44109;52.398;7.024;2023-01-15T03:29:39;45.23;34.25;57.20;;
58303;Laerm;44109;52.398;7.024;2023-01-15T03:32:08;45.11;34.07;57.14;;
58303;Laerm;44109;52.398;7.024;2023-01-15T03:34:41;45.79;35.01;57.16;;
58303;Laerm;44109;52.398;7.024;2023-01-15T03:37:10;46.44;36.15;58.07;;
58303;Laerm;44109;52.398;7.024;2023-01-15T03:39:38;46.36;35.33;65.57;;
58303;Laerm;44109;52.398;7.024;2023-01-15T03:42:22;46.95;36.65;57.24;;
58303;Laerm;44109;52.398;7.024;2023-01-15T03:45:03;46.24;37.05;57.67;;
58303;Laerm;44109;52.398;7.024;2023-01-15T03:47:49;46.76;36.68;61.29;;
58303;Laerm;44109;52.398;7.024;2023-01-15T03:50:27;45.79;35.75;56.99;;
58303;Laerm;44109;52.398;7.024;2023-01-15T03:53:07;46.61;37.23;57.18;;
58303;Laerm;44109;52.398;7.024;2023-01-15T03:55:44;47.78;37.21;59.13;;
58303;Laerm;44109;52.398;7.024;2023-01-15T03:58:22;45.50;34.53;57.29;;
58303;Laerm;44109;52.398;7.024;2023-01-15T04:00:55;46.20;35.24;59.75;;
58303;Laerm;44109;52.398;7.024;2023-01-15T04:03:27;45.93;35.24;57.09;;
58303;Laerm;44109;52.398;7.024;2023-01-15T04:05:59;45.94;34.72;57.20;;
58303;Laerm;44109;52.398;7.024;2023-01-15T04:08:33;47.41;35.29;58.58;;
58303;Laerm;44109;52.398;7.024;2023-01-15T04:11:02;46.30;36.45;59.81;;
58303;Laerm;44109;52.398;7.024;2023-01-15T04:13:30;45.90;35.19;58.20;;
58303;Laerm;44109;52.398;7.024;2023-01-15T04:16:00;45.84;34.63;58.87;;
58303;Laerm;44109;52.398;7.024;2023-01-15T04:18:27;48.12;35.45;59.11;;
58303;Laerm;44109;52.398;7.024;2023-01-15T04:20:56;46.02;34.55;57.04;;
58303;Laerm;44109;52.398;7.024;2023-01-15T04:23:23;45.62;34.41;57.78;;
58303;Laerm;44109;52.398;7.024;2023-01-15T04:25:51;45.58;34.82;57.10;;
58303;Laerm;44109;52.398;7.024;2023-01-15T04:28:19;45.65;34.32;56.93;;
58303;Laerm;44109;52.398;7.024;2023-01-15T04:30:46;46.41;36.22;59.31;;
58303;Laerm;44109;52.398;7.024;2023-01-15T04:33:15;45.73;34.77;57.34;;
58303;Laerm;44109;52.398;7.024;2023-01-15T04:35:43;46.94;36.86;59.32;;
58303;Laerm;44109;52.398;7.024;2023-01-15T04:38:12;46.77;36.09;59.61;;
58303;Laerm;44109;52.398;7.024;2023-01-15T04:40:39;46.30;35.80;57.41;;
58303;Laerm;44109;52.398;7.024;2023-01-15T04:43:24;45.99;35.11;57.92;;
58303;Laerm;44109;52.398;7.024;2023-01-15T04:46:09;46.64;37.39;56.61;;
58303;Laerm;44109;52.398;7.024;2023-01-15T04:48:39;46.70;37.17;57.26;;
58303;Laerm;44109;52.398;7.024;2023-01-15T04:51:07;45.12;33.21;57.13;;
58303;Laerm;44109;52.398;7.024;2023-01-15T04:53:34;47.35;35.99;57.34;;
58303;Laerm;44109;52.398;7.024;2023-01-15T04:56:03;47.08;33.57;65.20;;
58303;Laerm;44109;52.398;7.024;2023-01-15T04:58:33;47.32;36.46;64.80;;
58303;Laerm;44109;52.398;7.024;2023-01-15T05:01:01;46.76;33.95;62.01;;
58303;Laerm;44109;52.398;7.024;2023-01-15T05:03:30;47.45;36.77;58.77;;
58303;Laerm;44109;52.398;7.024;2023-01-15T05:06:02;45.90;34.45;57.30;;
58303;Laerm;44109;52.398;7.024;2023-01-15T05:08:30;47.76;34.98;65.40;;
58303;Laerm;44109;52.398;7.024;2023-01-15T05:11:01;46.31;33.62;58.13;;
58303;Laerm;44109;52.398;7.024;2023-01-15T05:13:29;47.84;35.85;58.03;;
58303;Laerm;44109;52.398;7.024;2023-01-15T05:16:08;47.15;37.87;57.40;;
58303;Laerm;44109;52.398;7.024;2023-01-15T05:18:36;47.35;36.41;58.23;;
58303;Laerm;44109;52.398;7.024;2023-01-15T05:21:05;47.20;36.54;59.95;;
58303;Laerm;44109;52.398;7.024;2023-01-15T05:23:33;46.65;37.88;57.24;;
58303;Laerm;44109;52.398;7.024;2023-01-15T05:26:02;47.29;38.30;57.38;;
58303;Laerm;44109;52.398;7.024;2023-01-15T05:28:31;48.61;36.64;64.82;;
58303;Laerm;44109;52.398;7.024;2023-01-15T05:31:05;47.81;35.62;58.33;;
58303;Laerm;44109;52.398;7.024;2023-01-15T05:33:36;47.26;34.25;58.95;;
58303;Laerm;44109;52.398;7.024;2023-01-15T05:36:08;47.72;37.92;65.05;;
58303;Laerm;44109;52.398;7.024;2023-01-15T05:38:37;45.78;35.22;57.56;;
58303;Laerm;44109;52.398;7.024;2023-01-15T05:41:08;46.93;34.92;57.37;;
58303;Laerm;44109;52.398;7.024;2023-01-15T05:43:51;47.74;38.00;57.97;;
58303;Laerm;44109;52.398;7.024;2023-01-15T05:46:19;47.38;37.82;62.25;;
58303;Laerm;44109;52.398;7.024;2023-01-15T05:48:47;48.44;37.16;61.79;;
58303;Laerm;44109;52.398;7.024;2023-01-15T05:51:17;50.94;40.85;73.32;;
58303;Laerm;44109;52.398;7.024;2023-01-15T05:53:44;47.10;37.40;60.24;;
58303;Laerm;44109;52.398;7.024;2023-01-15T05:56:12;45.72;34.55;63.14;;
58303;Laerm;44109;52.398;7.024;2023-01-15T05:58:40;53.43;36.77;78.82;;
58303;Laerm;44109;52.398;7.024;2023-01-15T06:01:09;49.55;39.76;71.27;;
58303;Laerm;44109;52.398;7.024;2023-01-15T06:03:37;49.85;38.87;73.50;;
58303;Laerm;44109;52.398;7.024;2023-01-15T06:06:13;59.37;38.95;86.96;;
58303;Laerm;44109;52.398;7.024;2023-01-15T06:08:42;66.48;48.24;94.25;;
58303;Laerm;44109;52.398;7.024;2023-01-15T06:11:11;72.89;52.33;92.55;;
58303;Laerm;44109;52.398;7.024;2023-01-15T06:13:39;70.43;44.85;92.07;;
58303;Laerm;44109;52.398;7.024;2023-01-15T06:16:08;49.47;36.88;77.61;;
58303;Laerm;44109;52.398;7.024;2023-01-15T06:18:37;47.12;34.35;74.33;;
58303;Laerm;44109;52.398;7.024;2023-01-15T06:21:07;45.13;33.61;64.62;;
58303;Laerm;44109;52.398;7.024;2023-01-15T06:23:38;45.30;32.42;68.92;;
58303;Laerm;44109;52.398;7.024;2023-01-15T06:26:11;45.80;32.72;74.90;;
58303;Laerm;44109;52.398;7.024;2023-01-15T06:28:40;44.65;33.27;58.01;;
58303;Laerm;44109;52.398;7.024;2023-01-15T06:31:11;45.30;33.59;58.00;;
58303;Laerm;44109;52.398;7.024;2023-01-15T06:33:39;68.35;33.98;92.39;;
58303;Laerm;44109;52.398;7.024;2023-01-15T06:36:10;59.56;35.00;83.26;;
58303;Laerm;44109;52.398;7.024;2023-01-15T06:38:38;45.00;33.98;61.40;;
58303;Laerm;44109;52.398;7.024;2023-01-15T06:41:12;44.96;34.47;58.36;;
58303;Laerm;44109;52.398;7.024;2023-01-15T06:43:58;44.77;34.02;56.94;;
58303;Laerm;44109;52.398;7.024;2023-01-15T06:46:46;44.50;34.44;57.14;;
58303;Laerm;44109;52.398;7.024;2023-01-15T06:49:33;50.05;36.85;74.37;;
58303;Laerm;44109;52.398;7.024;2023-01-15T06:52:03;47.47;37.80;63.99;;
58303;Laerm;44109;52.398;7.024;2023-01-15T06:54:32;46.80;37.87;57.92;;
58303;Laerm;44109;52.398;7.024;2023-01-15T06:57:02;50.55;38.47;66.64;;
58303;Laerm;44109;52.398;7.024;2023-01-15T06:59:30;50.46;41.53;60.04;;
58303;Laerm;44109;52.398;7.024;2023-01-15T07:01:58;51.11;41.45;67.97;;
58303;Laerm;44109;52.398;7.024;2023-01-15T07:04:25;53.27;45.42;69.60;;
58303;Laerm;44109;52.398;7.024;2023-01-15T07:06:53;49.72;41.56;65.60;;
58303;Laerm;44109;52.398;7.024;2023-01-15T07:09:20;54.61;41.41;73.99;;
58303;Laerm;44109;52.398;7.024;2023-01-15T07:11:48;53.36;40.89;68.06;;
58303;Laerm;44109;52.398;7.024;2023-01-15T07:14:19;50.26;41.02;64.53;;
58303;Laerm;44109;52.398;7.024;2023-01-15T07:16:47;49.62;40.20;65.09;;
58303;Laerm;44109;52.398;7.024;2023-01-15T07:19:16;47.75;36.96;60.19;;
58303;Laerm;44109;52.398;7.024;2023-01-15T07:21:44;47.75;38.33;62.21;;
58303;Laerm;44109;52.398;7.024;2023-01-15T07:24:15;49.19;36.45;59.66;;
58303;Laerm;44109;52.398;7.024;2023-01-15T07:26:43;52.05;39.14;69.62;;
58303;Laerm;44109;52.398;7.024;2023-01-15T07:29:11;48.95;40.30;64.38;;
58303;Laerm;44109;52.398;7.024;2023-01-15T07:31:41;48.88;40.98;63.23;;
58303;Laerm;44109;52.398;7.024;2023-01-15T07:34:09;51.71;41.09;68.44;;
58303;Laerm;44109;52.398;7.024;2023-01-15T07:36:37;53.06;40.92;76.64;;
58303;Laerm;44109;52.398;7.024;2023-01-15T07:39:06;51.00;42.28;71.24;;
58303;Laerm;44109;52.398;7.024;2023-01-15T07:41:34;53.75;45.75;67.82;;
58303;Laerm;44109;52.398;7.024;2023-01-15T07:44:19;54.20;46.34;67.94;;
58303;Laerm;44109;52.398;7.024;2023-01-15T07:47:16;55.25;44.49;69.73;;
58303;Laerm;44109;52.398;7.024;2023-01-15T07:50:04;53.42;44.32;73.18;;
58303;Laerm;44109;52.398;7.024;2023-01-15T07:52:32;54.83;43.95;74.11;;
58303;Laerm;44109;52.398;7.024;2023-01-15T07:55:00;58.00;46.31;79.18;;
58303;Laerm;44109;52.398;7.024;2023-01-15T07:57:29;51.22;44.50;66.43;;
58303;Laerm;44109;52.398;7.024;2023-01-15T07:59:57;51.65;43.93;68.26;;
58303;Laerm;44109;52.398;7.024;2023-01-15T08:02:26;50.36;43.46;67.52;;
58303;Laerm;44109;52.398;7.024;2023-01-15T08:04:54;49.39;41.61;62.25;;
58303;Laerm;44109;52.398;7.024;2023-01-15T08:07:21;51.56;42.16;72.60;;
58303;Laerm;44109;52.398;7.024;2023-01-15T08:09:49;49.45;40.87;69.96;;
58303;Laerm;44109;52.398;7.024;2023-01-15T08:12:17;48.32;39.72;64.36;;
58303;Laerm;44109;52.398;7.024;2023-01-15T08:15:03;47.98;41.11;66.72;;
58303;Laerm;44109;52.398;7.024;2023-01-15T08:17:42;48.32;40.91;64.70;;
58303;Laerm;44109;52.398;7.024;2023-01-15T08:20:14;47.60;39.72;58.16;;
58303;Laerm;44109;52.398;7.024;2023-01-15T08:22:43;48.62;39.77;62.06;;
58303;Laerm;44109;52.398;7.024;2023-01-15T08:25:15;48.61;40.97;59.49;;
58303;Laerm;44109;52.398;7.024;2023-01-15T08:27:44;48.03;38.06;60.50;;
58303;Laerm;44109;52.398;7.024;2023-01-15T08:30:15;49.86;40.75;63.67;;
58303;Laerm;44109;52.398;7.024;2023-01-15T08:32:44;51.36;44.46;68.65;;
58303;Laerm;44109;52.398;7.024;2023-01-15T08:35:12;48.38;40.73;63.95;;
58303;Laerm;44109;52.398;7.024;2023-01-15T08:37:41;51.29;43.51;63.05;;
58303;Laerm;44109;52.398;7.024;2023-01-15T08:40:11;49.98;39.51;68.78;;
58303;Laerm;44109;52.398;7.024;2023-01-15T08:42:39;49.61;40.72;61.17;;
58303;Laerm;44109;52.398;7.024;2023-01-15T08:45:08;49.73;41.81;63.70;;
58303;Laerm;44109;52.398;7.024;2023-01-15T08:47:36;49.84;41.88;64.99;;
58303;Laerm;44109;52.398;7.024;2023-01-15T08:50:07;49.60;40.96;65.34;;
58303;Laerm;44109;52.398;7.024;2023-01-15T08:52:35;48.30;39.74;59.34;;
58303;Laerm;44109;52.398;7.024;2023-01-15T08:55:05;53.53;44.85;71.78;;
58303;Laerm;44109;52.398;7.024;2023-01-15T08:57:33;47.77;37.81;65.26;;
58303;Laerm;44109;52.398;7.024;2023-01-15T09:00:01;52.71;41.99;63.42;;
58303;Laerm;44109;52.398;7.024;2023-01-15T09:02:29;53.78;44.74;66.87;;
58303;Laerm;44109;52.398;7.024;2023-01-15T09:04:56;52.32;44.02;81.66;;
58303;Laerm;44109;52.398;7.024;2023-01-15T09:07:25;52.95;43.23;70.71;;
58303;Laerm;44109;52.398;7.024;2023-01-15T09:09:53;52.14;42.22;71.09;;
58303;Laerm;44109;52.398;7.024;2023-01-15T09:12:20;50.34;43.29;65.00;;
58303;Laerm;44109;52.398;7.024;2023-01-15T09:14:51;52.82;43.21;65.27;;
58303;Laerm;44109;52.398;7.024;2023-01-15T09:17:19;50.74;42.41;63.69;;
58303;Laerm;44109;52.398;7.024;2023-01-15T09:19:46;52.30;44.70;64.72;;
58303;Laerm;44109;52.398;7.024;2023-01-15T09:22:14;51.62;43.22;70.52;;
58303;Laerm;44109;52.398;7.024;2023-01-15T09:24:43;51.58;45.62;67.90;;
58303;Laerm;44109;52.398;7.024;2023-01-15T09:27:11;52.04;44.71;64.92;;
58303;Laerm;44109;52.398;7.024;2023-01-15T09:29:39;56.34;49.26;68.80;;
58303;Laerm;44109;52.398;7.024;2023-01-15T09:32:07;53.50;45.00;72.93;;
58303;Laerm;44109;52.398;7.024;2023-01-15T09:34:35;53.31;45.15;71.89;;
58303;Laerm;44109;52.398;7.024;2023-01-15T09:37:03;54.28;44.92;74.83;;
58303;Laerm;44109;52.398;7.024;2023-01-15T09:39:31;53.35;44.57;71.01;;
58303;Laerm;44109;52.398;7.024;2023-01-15T09:42:19;53.01;43.92;64.89;;
58303;Laerm;44109;52.398;7.024;2023-01-15T09:45:12;53.53;47.30;66.67;;
58303;Laerm;44109;52.398;7.024;2023-01-15T09:47:57;52.56;42.54;68.67;;
58303;Laerm;44109;52.398;7.024;2023-01-15T09:50:43;58.30;47.58;72.28;;
58303;Laerm;44109;52.398;7.024;2023-01-15T09:53:33;54.40;47.58;63.46;;
58303;Laerm;44109;52.398;7.024;2023-01-15T09:56:04;54.31;45.98;69.45;;
58303;Laerm;44109;52.398;7.024;2023-01-15T09:58:37;51.38;44.53;61.74;;
58303;Laerm;44109;52.398;7.024;2023-01-15T10:01:11;54.53;46.53;73.71;;
58303;Laerm;44109;52.398;7.024;2023-01-15T10:03:44;59.86;52.15;79.66;;
58303;Laerm;44109;52.398;7.024;2023-01-15T10:06:20;54.66;44.46;63.23;;
58303;Laerm;44109;52.398;7.024;2023-01-15T10:08:50;53.58;45.51;64.35;;
58303;Laerm;44109;52.398;7.024;2023-01-15T10:11:34;53.01;44.51;72.70;;
58303;Laerm;44109;52.398;7.024;2023-01-15T10:14:46;53.48;46.67;63.21;;
58303;Laerm;44109;52.398;7.024;2023-01-15T10:17:27;54.52;46.12;69.46;;
58303;Laerm;44109;52.398;7.024;2023-01-15T10:20:00;53.29;44.79;68.32;;
58303;Laerm;44109;52.398;7.024;2023-01-15T10:22:47;60.21;49.33;77.40;;
58303;Laerm;44109;52.398;7.024;2023-01-15T10:25:28;58.65;50.39;75.71;;
58303;Laerm;44109;52.398;7.024;2023-01-15T10:28:08;56.04;47.76;76.21;;
58303;Laerm;44109;52.398;7.024;2023-01-15T10:30:46;58.72;50.16;72.95;;
58303;Laerm;44109;52.398;7.024;2023-01-15T10:33:39;54.60;47.37;66.12;;
58303;Laerm;44109;52.398;7.024;2023-01-15T10:36:14;59.73;49.99;71.73;;
58303;Laerm;44109;52.398;7.024;2023-01-15T10:38:56;59.59;48.94;75.46;;
58303;Laerm;44109;52.398;7.024;2023-01-15T10:41:40;60.29;47.01;78.17;;
58303;Laerm;44109;52.398;7.024;2023-01-15T10:44:18;60.02;49.94;76.28;;
58303;Laerm;44109;52.398;7.024;2023-01-15T10:46:55;57.18;45.58;73.35;;
58303;Laerm;44109;52.398;7.024;2023-01-15T10:49:28;55.26;44.29;68.37;;
58303;Laerm;44109;52.398;7.024;2023-01-15T10:52:03;56.60;45.74;73.20;;
58303;Laerm;44109;52.398;7.024;2023-01-15T10:54:39;55.46;47.36;70.77;;
58303;Laerm;44109;52.398;7.024;2023-01-15T10:57:16;60.05;49.19;86.48;;
58303;Laerm;44109;52.398;7.024;2023-01-15T10:59:51;62.85;53.26;79.97;;
58303;Laerm;44109;52.398;7.024;2023-01-15T11:02:31;60.45;51.85;73.20;;
58303;Laerm;44109;52.398;7.024;2023-01-15T11:05:03;54.92;48.68;68.61;;
58303;Laerm;44109;52.398;7.024;2023-01-15T11:07:37;59.41;49.70;82.13;;
58303;Laerm;44109;52.398;7.024;2023-01-15T11:10:10;58.49;49.10;68.67;;
58303;Laerm;44109;52.398;7.024;2023-01-15T11:12:49;58.30;48.98;77.57;;
58303;Laerm;44109;52.398;7.024;2023-01-15T11:15:35;59.29;49.07;78.43;;
58303;Laerm;44109;52.398;7.024;2023-01-15T11:18:26;57.40;49.05;72.48;;
58303;Laerm;44109;52.398;7.024;2023-01-15T11:21:16;59.78;51.34;76.41;;
58303;Laerm;44109;52.398;7.024;2023-01-15T11:23:45;59.92;48.45;80.24;;
58303;Laerm;44109;52.398;7.024;2023-01-15T11:26:20;58.98;49.92;79.49;;
58303;Laerm;44109;52.398;7.024;2023-01-15T11:28:49;56.90;48.00;71.10;;
58303;Laerm;44109;52.398;7.024;2023-01-15T11:31:16;54.39;46.85;73.73;;
58303;Laerm;44109;52.398;7.024;2023-01-15T11:33:58;59.37;49.83;76.51;;
58303;Laerm;44109;52.398;7.024;2023-01-15T11:36:28;60.43;48.79;79.77;;
58303;Laerm;44109;52.398;7.024;2023-01-15T11:38:56;60.91;53.17;80.03;;
58303;Laerm;44109;52.398;7.024;2023-01-15T11:41:31;55.49;47.71;73.06;;
58303;Laerm;44109;52.398;7.024;2023-01-15T11:44:14;54.24;47.54;70.88;;
58303;Laerm;44109;52.398;7.024;2023-01-15T11:47:00;57.17;47.46;71.36;;
58303;Laerm;44109;52.398;7.024;2023-01-15T11:49:50;54.69;47.74;71.75;;
58303;Laerm;44109;52.398;7.024;2023-01-15T11:52:40;56.03;48.32;73.20;;
58303;Laerm;44109;52.398;7.024;2023-01-15T11:55:12;56.34;50.58;69.58;;
58303;Laerm;44109;52.398;7.024;2023-01-15T11:57:41;55.57;47.50;70.41;;
58303;Laerm;44109;52.398;7.024;2023-01-15T12:00:21;59.44;49.29;77.30;;
58303;Laerm;44109;52.398;7.024;2023-01-15T12:02:51;57.71;50.57;76.24;;
58303;Laerm;44109;52.398;7.024;2023-01-15T12:05:26;57.23;49.32;71.28;;
58303;Laerm;44109;52.398;7.024;2023-01-15T12:07:57;57.35;48.32;69.89;;
58303;Laerm;44109;52.398;7.024;2023-01-15T12:10:34;57.50;49.68;66.49;;
58303;Laerm;44109;52.398;7.024;2023-01-15T12:13:45;60.50;49.14;76.55;;
58303;Laerm;44109;52.398;7.024;2023-01-15T12:16:25;58.80;46.97;78.74;;
58303;Laerm;44109;52.398;7.024;2023-01-15T12:19:00;51.72;45.99;68.19;;
58303;Laerm;44109;52.398;7.024;2023-01-15T12:21:58;59.32;47.02;78.51;;
58303;Laerm;44109;52.398;7.024;2023-01-15T12:24:57;59.05;46.12;79.55;;
58303;Laerm;44109;52.398;7.024;2023-01-15T12:27:51;63.86;47.61;85.54;;
58303;Laerm;44109;52.398;7.024;2023-01-15T12:30:28;56.61;48.52;74.19;;
58303;Laerm;44109;52.398;7.024;2023-01-15T12:33:23;63.73;49.50;84.02;;
58303;Laerm;44109;52.398;7.024;2023-01-15T12:36:01;60.83;49.99;78.96;;
58303;Laerm;44109;52.398;7.024;2023-01-15T12:38:47;58.66;47.34;78.81;;
58303;Laerm;44109;52.398;7.024;2023-01-15T12:41:22;58.56;50.01;74.17;;
58303;Laerm;44109;52.398;7.024;2023-01-15T12:44:17;61.57;49.30;78.18;;
58303;Laerm;44109;52.398;7.024;2023-01-15T12:47:09;59.41;50.84;77.03;;
58303;Laerm;44109;52.398;7.024;2023-01-15T12:49:43;56.39;47.78;73.44;;
58303;Laerm;44109;52.398;7.024;2023-01-15T12:52:18;58.37;48.01;77.15;;
58303;Laerm;44109;52.398;7.024;2023-01-15T12:55:01;56.96;46.60;75.40;;
58303;Laerm;44109;52.398;7.024;2023-01-15T12:57:36;56.04;48.62;69.02;;
58303;Laerm;44109;52.398;7.024;2023-01-15T13:00:14;58.93;50.28;79.89;;
58303;Laerm;44109;52.398;7.024;2023-01-15T13:03:00;63.08;53.43;79.97;;
58303;Laerm;44109;52.398;7.024;2023-01-15T13:05:38;60.52;49.86;80.26;;
58303;Laerm;44109;52.398;7.024;2023-01-15T13:08:18;55.97;47.65;74.72;;
58303;Laerm;44109;52.398;7.024;2023-01-15T13:10:50;55.31;48.62;64.62;;
58303;Laerm;44109;52.398;7.024;2023-01-15T13:13:21;60.41;48.60;78.05;;
58303;Laerm;44109;52.398;7.024;2023-01-15T13:16:04;60.45;50.90;74.77;;
58303;Laerm;44109;52.398;7.024;2023-01-15T13:18:50;60.94;51.60;78.73;;
58303;Laerm;44109;52.398;7.024;2023-01-15T13:21:23;59.28;49.93;80.92;;
58303;Laerm;44109;52.398;7.024;2023-01-15T13:24:22;56.85;48.29;73.56;;
58303;Laerm;44109;52.398;7.024;2023-01-15T13:27:15;56.84;48.78;75.45;;
58303;Laerm;44109;52.398;7.024;2023-01-15T13:30:07;57.07;49.18;71.77;;
58303;Laerm;44109;52.398;7.024;2023-01-15T13:32:45;55.09;45.23;76.83;;
58303;Laerm;44109;52.398;7.024;2023-01-15T13:35:27;58.30;46.93;79.22;;
58303;Laerm;44109;52.398;7.024;2023-01-15T13:38:01;56.69;48.18;71.95;;
58303;Laerm;44109;52.398;7.024;2023-01-15T13:40:34;56.95;47.89;73.41;;
58303;Laerm;44109;52.398;7.024;2023-01-15T13:43:07;59.10;48.84;73.08;;
58303;Laerm;44109;52.398;7.024;2023-01-15T13:45:39;57.67;50.67;77.04;;
58303;Laerm;44109;52.398;7.024;2023-01-15T13:48:15;61.78;50.07;77.39;;
58303;Laerm;44109;52.398;7.024;2023-01-15T13:50:52;59.06;49.58;78.69;;
58303;Laerm;44109;52.398;7.024;2023-01-15T13:53:28;63.89;50.60;89.26;;
58303;Laerm;44109;52.398;7.024;2023-01-15T13:55:59;59.52;44.63;84.17;;
58303;Laerm;44109;52.398;7.024;2023-01-15T13:58:34;56.11;44.34;85.43;;
58303;Laerm;44109;52.398;7.024;2023-01-15T14:01:23;59.97;46.46;81.59;;
58303;Laerm;44109;52.398;7.024;2023-01-15T14:04:01;60.40;53.67;74.10;;
58303;Laerm;44109;52.398;7.024;2023-01-15T14:06:41;61.78;49.75;80.99;;
58303;Laerm;44109;52.398;7.024;2023-01-15T14:09:12;59.84;49.66;76.68;;
58303;Laerm;44109;52.398;7.024;2023-01-15T14:12:00;58.00;51.56;86.11;;
58303;Laerm;44109;52.398;7.024;2023-01-15T14:15:02;55.83;46.75;71.13;;
58303;Laerm;44109;52.398;7.024;2023-01-15T14:18:09;54.44;46.46;77.58;;
58303;Laerm;44109;52.398;7.024;2023-01-15T14:20:54;57.57;45.93;78.11;;
58303;Laerm;44109;52.398;7.024;2023-01-15T14:23:50;55.49;47.83;73.89;;